Time;durP1;ratioP1;P1;durP2;ratioP2;P2;SDS_P1;SDS_P2;PMS_P1;PMS_P2;Temp;Humidity;BMP_temperature;BMP_pressure;BME280_temperature;BME280_humidity;BME280_pressure;Samples;Min_cycle;Max_cycle;Signal;HPM_P1;HPM_P2
2022/03/22 00:00:21;;;;;;;30.73;16.17;;;;;;;6.66;30.99;102519.97;5364793;32;34885;-69
2022/03/22 00:03:26;;;;;;;30.13;15.70;;;;;;;7.01;30.23;102514.22;5366098;32;34883;-72
2022/03/22 00:06:32;;;;;;;31.00;15.77;;;;;;;7.06;30.35;102517.78;5363933;32;44479;-65
2022/03/22 00:09:34;;;;;;;31.93;16.27;;;;;;;6.01;32.42;102532.22;5354619;32;34218;-72
2022/03/22 00:12:36;;;;;;;31.33;15.90;;;;;;;5.54;33.62;102528.03;5363717;32;36129;-73
2022/03/22 00:15:41;;;;;;;34.00;16.63;;;;;;;5.61;33.67;102521.19;5371365;32;34397;-74
2022/03/22 00:19:03;;;;;;;34.60;18.27;;;;;;;6.22;32.80;102522.06;5358811;32;45196;-66
2022/03/22 00:22:05;;;;;;;31.97;16.30;;;;;;;5.33;34.04;102519.84;5350865;32;35674;-73
2022/03/22 00:25:08;;;;;;;30.07;16.30;;;;;;;6.45;32.47;102512.78;5366843;32;33460;-65
2022/03/22 00:28:12;;;;;;;30.02;17.02;;;;;;;5.32;34.19;102518.09;5361409;32;34035;-73
2022/03/22 00:31:15;;;;;;;32.90;17.20;;;;;;;5.42;34.48;102514.81;5376741;32;35045;-74
2022/03/22 00:34:18;;;;;;;33.65;16.40;;;;;;;6.22;33.01;102516.84;5360524;32;34701;-75
2022/03/22 00:37:20;;;;;;;33.50;16.43;;;;;;;5.72;33.93;102517.84;5366324;32;35340;-65
2022/03/22 00:40:24;;;;;;;36.20;17.17;;;;;;;6.08;33.50;102519.28;5372080;32;34306;-76
2022/03/22 00:43:26;;;;;;;29.17;15.67;;;;;;;6.48;32.82;102520.66;5318446;32;34624;-74
2022/03/22 00:46:28;;;;;;;30.60;15.53;;;;;;;5.95;33.38;102519.97;5372343;32;45146;-74
2022/03/22 00:49:32;;;;;;;34.60;16.63;;;;;;;6.56;32.66;102514.63;5356510;32;34735;-65
2022/03/22 00:52:36;;;;;;;;;;;;;;;5.61;34.10;102513.38;5366932;32;34005;-73
2022/03/22 00:55:40;;;;;;;31.30;15.90;;;;;;;4.56;36.72;102518.47;5364553;32;34968;-66
2022/03/22 00:58:42;;;;;;;32.10;16.00;;;;;;;5.16;35.77;102510.03;5358398;32;34858;-66
2022/03/22 01:01:44;;;;;;;31.87;16.27;;;;;;;5.46;35.22;102500.06;5365651;32;34050;-66
2022/03/22 01:04:46;;;;;;;33.23;16.80;;;;;;;4.94;36.48;102512.22;5362442;32;35244;-66
2022/03/22 01:07:51;;;;;;;31.27;16.47;;;;;;;4.54;37.45;102514.97;5364412;32;35154;-75
2022/03/22 01:10:53;;;;;;;31.03;17.07;;;;;;;5.59;35.35;102509.81;5362919;32;34500;-75
2022/03/22 01:13:56;;;;;;;28.43;15.20;;;;;;;6.11;33.93;102500.16;5370590;32;34962;-66
2022/03/22 01:16:58;;;;;;;28.63;15.50;;;;;;;6.08;34.02;102502.75;5356263;32;44475;-73
2022/03/22 01:20:05;;;;;;;33.13;17.27;;;;;;;6.51;33.18;102498.94;5362824;32;34138;-74
2022/03/22 01:23:09;;;;;;;31.73;15.83;;;;;;;5.00;35.82;102513.22;5364944;32;34026;-72
2022/03/22 01:26:11;;;;;;;29.17;15.93;;;;;;;4.34;37.45;102505.88;5362476;32;34524;-73
2022/03/22 01:29:13;;;;;;;31.80;16.40;;;;;;;4.33;37.56;102510.22;5376621;32;34388;-66
2022/03/22 01:32:15;;;;;;;30.47;15.80;;;;;;;4.41;37.54;102506.88;5347151;32;34872;-72
2022/03/22 01:35:19;;;;;;;35.43;16.33;;;;;;;4.57;37.41;102503.72;5351830;32;34609;-74
2022/03/22 01:38:22;;;;;;;32.95;16.37;;;;;;;4.75;37.05;102504.06;5354756;32;34815;-66
2022/03/22 01:41:24;;;;;;;28.70;15.20;;;;;;;3.99;38.50;102502.53;5352868;32;36819;-67
2022/03/22 01:44:28;;;;;;;36.07;17.37;;;;;;;5.13;36.52;102496.06;5344592;32;33034;-67
2022/03/22 01:47:30;;;;;;;28.10;14.30;;;;;;;5.82;35.04;102492.78;5352514;32;34078;-65
2022/03/22 01:50:33;;;;;;;29.30;15.67;;;;;;;6.03;34.28;102489.62;5367488;32;34415;-66
2022/03/22 01:53:36;;;;;;;28.27;14.70;;;;;;;4.83;36.76;102491.19;5347751;32;35591;-73
2022/03/22 01:56:38;;;;;;;29.00;15.87;;;;;;;6.08;34.61;102490.56;5372136;32;34866;-67
2022/03/22 01:59:40;;;;;;;30.43;15.30;;;;;;;4.44;37.59;102496.53;5371794;32;35242;-65
2022/03/22 02:06:04;;;;;;;31.57;15.63;;;;;;;4.07;38.44;102490.59;5368821;32;43101;-73
2022/03/22 02:09:07;;;;;;;27.13;15.43;;;;;;;4.29;38.15;102489.28;5352625;32;34766;-72
2022/03/22 02:12:09;;;;;;;29.53;15.23;;;;;;;4.86;37.16;102483.44;5381082;32;34707;-72
2022/03/22 02:15:12;;;;;;;31.70;16.90;;;;;;;4.34;37.82;102491.13;5358016;32;34057;-74
2022/03/22 02:18:15;;;;;;;28.67;14.80;;;;;;;3.70;39.13;102484.56;5344289;32;34584;-67
2022/03/22 02:21:18;;;;;;;29.35;15.13;;;;;;;3.79;39.51;102494.28;5381783;32;37596;-73
2022/03/22 02:24:20;;;;;;;31.05;14.25;;;;;;;4.01;38.57;102477.44;5366380;32;34728;-65
2022/03/22 02:27:28;;;;;;;27.73;14.20;;;;;;;4.71;37.15;102491.84;5379662;32;34626;-66
2022/03/22 02:30:30;;;;;;;30.13;14.50;;;;;;;4.37;37.60;102489.44;5340666;32;45035;-74
2022/03/22 02:33:33;;;;;;;30.77;15.53;;;;;;;4.81;36.88;102483.34;5358052;32;34766;-68
2022/03/22 02:36:35;;;;;;;26.03;14.10;;;;;;;4.35;37.58;102485.09;5368219;32;35065;-66
2022/03/22 02:39:37;;;;;;;25.63;13.90;;;;;;;4.53;37.49;102481.09;5361953;32;35032;-72
2022/03/22 02:42:45;;;;;;;27.30;14.27;;;;;;;5.31;35.91;102475.50;5345988;32;35827;-73
2022/03/22 02:45:47;;;;;;;25.83;13.03;;;;;;;4.87;35.63;102477.37;5335475;32;34462;-66
2022/03/22 02:48:49;;;;;;;24.33;13.27;;;;;;;5.05;36.01;102476.81;5375193;32;35772;-74
2022/03/22 02:51:52;;;;;;;25.33;13.43;;;;;;;4.30;37.35;102488.44;5354185;32;33323;-73
2022/03/22 02:54:54;;;;;;;25.83;13.47;;;;;;;3.72;38.46;102490.66;5368746;32;34330;-75
2022/03/22 02:57:56;;;;;;;28.93;13.73;;;;;;;4.82;36.22;102477.28;5367719;32;35050;-65
2022/03/22 03:00:59;;;;;;;27.07;13.43;;;;;;;4.34;37.09;102488.53;5360674;32;43122;-65
2022/03/22 03:04:01;;;;;;;29.58;14.93;;;;;;;4.97;36.03;102488.84;5353708;32;34704;-65
2022/03/22 03:07:04;;;;;;;25.73;14.23;;;;;;;5.13;35.85;102483.91;5351761;32;35552;-73
2022/03/22 03:10:07;;;;;;;28.00;13.43;;;;;;;4.88;36.50;102487.81;5375611;32;35579;-67
2022/03/22 03:13:09;;;;;;;28.10;13.05;;;;;;;5.20;35.74;102491.81;5362044;32;34579;-74
2022/03/22 03:16:12;;;;;;;29.57;13.17;;;;;;;4.66;36.70;102490.00;5363463;32;33691;-66
2022/03/22 03:19:14;;;;;;;27.37;13.50;;;;;;;4.55;36.70;102490.69;5366924;32;35380;-73
2022/03/22 03:22:16;;;;;;;23.77;12.83;;;;;;;4.50;37.01;102502.72;5363893;32;33968;-67
2022/03/22 03:25:18;;;;;;;28.70;13.67;;;;;;;4.84;36.68;102503.38;5377578;32;35096;-74
2022/03/22 03:28:20;;;;;;;26.07;13.63;;;;;;;3.99;38.21;102508.63;5360044;32;34673;-66
2022/03/22 03:31:23;;;;;;;26.47;13.87;;;;;;;3.41;39.62;102506.41;5379483;32;35964;-67
2022/03/22 03:34:25;;;;;;;26.07;13.80;;;;;;;4.13;38.26;102508.94;5357893;32;34764;-74
2022/03/22 03:37:37;;;;;;;25.83;13.60;;;;;;;4.06;38.55;102505.31;5370279;32;43764;-73
2022/03/22 03:47:03;;;;;;;26.80;13.23;;;;;;;4.76;36.88;102497.13;5326814;32;43571;-74
2022/03/22 03:47:23;;;;;;;26.17;13.27;;;;;;;4.65;37.48;102493.47;5367277;32;34820;-66
2022/03/22 03:50:26;;;;;;;29.87;14.30;;;;;;;4.77;37.05;102498.91;5352701;32;34830;-73
2022/03/22 03:53:28;;;;;;;26.27;12.73;;;;;;;4.54;37.50;102499.34;5361784;32;44898;-74
2022/03/22 03:56:30;;;;;;;27.03;13.77;;;;;;;4.19;37.93;102498.66;5363565;32;35101;-73
2022/03/22 03:59:34;;;;;;;22.00;12.83;;;;;;;4.71;37.39;102501.41;5365996;32;35718;-66
2022/03/22 04:02:36;;;;;;;28.02;13.73;;;;;;;4.47;37.57;102505.28;5365235;32;34776;-65
2022/03/22 04:05:38;;;;;;;28.63;13.33;;;;;;;3.21;40.00;102514.59;5363072;32;34615;-73
2022/03/22 04:08:44;;;;;;;40.20;15.03;;;;;;;3.45;40.20;102516.91;5365251;32;34356;-66
2022/03/22 04:11:46;;;;;;;28.40;14.97;;;;;;;3.64;40.39;102517.34;5367136;32;35174;-67
2022/03/22 04:14:50;;;;;;;28.63;14.27;;;;;;;4.28;38.62;102511.84;5356898;32;35348;-65
2022/03/22 04:17:53;;;;;;;28.90;12.80;;;;;;;4.97;37.32;102497.53;5357654;32;34789;-73
2022/03/22 04:20:55;;;;;;;26.93;13.13;;;;;;;5.09;36.94;102513.41;5359201;32;34864;-76
2022/03/22 04:23:59;;;;;;;24.77;13.27;;;;;;;3.61;40.12;102518.19;5363036;32;43663;-65
2022/03/22 04:33:43;;;;;;;25.93;12.60;;;;;;;2.99;41.59;102515.78;5376703;32;34880;-65
2022/03/22 04:36:55;;;;;;;28.43;12.60;;;;;;;3.36;41.13;102528.84;5338479;32;35384;-66
2022/03/22 04:39:57;;;;;;;25.50;13.07;;;;;;;3.74;40.77;102521.94;5373657;32;36021;-66
2022/03/22 04:42:59;;;;;;;23.53;12.90;;;;;;;4.76;38.45;102525.78;5324921;32;35287;-65
2022/03/22 04:46:01;;;;;;;22.33;12.20;;;;;;;3.97;39.75;102519.84;5353665;32;35627;-65
2022/03/22 04:49:04;;;;;;;24.53;13.03;;;;;;;4.36;39.01;102525.00;5366338;32;35710;-74
2022/03/22 04:58:51;;;;;;;22.90;11.57;;;;;;;4.10;39.02;102536.59;5346080;32;34873;-65
2022/03/22 05:01:53;;;;;;;23.13;12.73;;;;;;;4.56;38.06;102528.88;5378656;32;35111;-65
2022/03/22 05:04:55;;;;;;;24.03;11.50;;;;;;;4.88;37.45;102529.50;5348431;32;34199;-73
2022/03/22 05:07:57;;;;;;;23.43;11.60;;;;;;;4.41;38.51;102536.41;5364091;32;44404;-75
2022/03/22 05:10:59;;;;;;;21.70;11.90;;;;;;;4.23;39.01;102533.41;5378257;32;35580;-74
2022/03/22 05:14:02;;;;;;;22.93;11.53;;;;;;;4.25;39.15;102545.63;5350887;32;34951;-65
2022/03/22 05:17:04;;;;;;;21.93;11.90;;;;;;;5.25;37.11;102532.75;5363155;32;35304;-74
2022/03/22 05:20:07;;;;;;;20.30;12.27;;;;;;;5.37;36.83;102540.78;5361731;32;33983;-74
2022/03/22 05:23:09;;;;;;;24.98;12.43;;;;;;;4.96;37.74;102545.31;5361157;32;34288;-66
2022/03/22 05:26:15;;;;;;;25.60;12.10;;;;;;;5.19;37.17;102527.44;5359890;32;35015;-66
2022/03/22 05:29:17;;;;;;;35.43;13.20;;;;;;;5.11;37.69;102539.47;5356210;32;34380;-66
2022/03/22 05:32:20;;;;;;;30.83;12.43;;;;;;;5.47;36.56;102541.81;5366743;32;35315;-74
2022/03/22 05:35:23;;;;;;;24.10;11.70;;;;;;;5.00;37.80;102541.00;5352727;32;34924;-67
2022/03/22 05:38:26;;;;;;;25.40;12.40;;;;;;;6.14;35.91;102534.16;5377585;32;34404;-74
2022/03/22 05:41:28;;;;;;;28.73;12.80;;;;;;;7.06;34.14;102531.72;5364270;32;43310;-66
2022/03/22 05:44:30;;;;;;;30.23;13.17;;;;;;;7.82;32.71;102533.19;5339412;32;34047;-75
2022/03/22 05:47:32;;;;;;;28.80;12.73;;;;;;;7.61;33.06;102531.31;5375000;32;35655;-74
2022/03/22 05:50:34;;;;;;;30.80;13.60;;;;;;;7.75;33.20;102534.03;5360296;32;35395;-73
2022/03/22 05:53:37;;;;;;;26.33;13.50;;;;;;;9.11;30.74;102529.34;5362717;32;34654;-66
2022/03/22 05:56:39;;;;;;;26.30;13.87;;;;;;;8.52;31.58;102541.44;5352950;32;34866;-68
2022/03/22 05:59:41;;;;;;;33.07;15.70;;;;;;;8.75;31.37;102545.88;5373047;32;34748;-73
2022/03/22 06:02:44;;;;;;;27.80;13.97;;;;;;;8.45;31.68;102546.66;5365106;32;35425;-68
2022/03/22 06:05:46;;;;;;;26.20;13.40;;;;;;;9.25;30.49;102535.47;5369709;32;34834;-74
2022/03/22 06:08:49;;;;;;;29.70;14.17;;;;;;;9.88;29.46;102541.56;5369499;32;36549;-74
2022/03/22 06:11:52;;;;;;;31.80;16.47;;;;;;;9.77;29.92;102541.56;5350658;32;34555;-71
2022/03/22 06:15:14;;;;;;;25.43;14.77;;;;;;;9.76;29.40;102549.47;5373631;32;34736;-66
2022/03/22 06:18:16;;;;;;;30.60;15.23;;;;;;;9.39;29.90;102540.72;5356920;32;34841;-75
2022/03/22 06:21:18;;;;;;;28.73;15.17;;;;;;;11.76;26.52;102540.47;5375546;32;34959;-66
2022/03/22 06:24:21;;;;;;;28.50;14.10;;;;;;;11.56;26.78;102537.16;5367584;32;34591;-66
2022/03/22 06:27:23;;;;;;;27.13;13.83;;;;;;;11.98;25.78;102537.66;5350628;32;34892;-75
2022/03/22 06:30:26;;;;;;;27.83;14.83;;;;;;;11.18;26.33;102546.25;5370797;32;38755;-71
2022/03/22 06:33:28;;;;;;;27.10;14.23;;;;;;;10.72;27.34;102554.44;5343096;32;44549;-66
2022/03/22 06:36:30;;;;;;;24.13;13.77;;;;;;;12.55;24.98;102543.13;5361885;32;35366;-69
2022/03/22 06:39:33;;;;;;;45.97;18.13;;;;;;;13.34;23.70;102544.66;5358580;32;36001;-80
2022/03/22 06:42:36;;;;;;;26.47;14.07;;;;;;;13.61;22.69;102542.44;5347514;32;34156;-72
2022/03/22 06:45:38;;;;;;;23.20;14.60;;;;;;;13.07;23.17;102551.19;5345983;32;34253;-73
2022/03/22 06:48:42;;;;;;;26.73;13.27;;;;;;;12.06;23.77;102551.63;5355353;32;34918;-71
2022/03/22 06:51:44;;;;;;;22.25;12.60;;;;;;;13.01;22.82;102544.25;5371765;32;34077;-69
2022/03/22 06:54:46;;;;;;;36.05;14.98;;;;;;;13.66;22.26;102543.22;5362598;32;35686;-67
2022/03/22 06:57:53;;;;;;;34.10;13.57;;;;;;;13.11;22.91;102544.97;5362168;32;36423;-63
2022/03/22 07:00:55;;;;;;;27.50;13.77;;;;;;;14.29;21.49;102546.41;5359953;32;35260;-68
2022/03/22 07:03:58;;;;;;;28.98;14.07;;;;;;;14.20;21.31;102540.44;5354217;32;44689;-66
2022/03/22 07:07:00;;;;;;;26.73;13.20;;;;;;;13.69;21.96;102543.16;5352148;32;34697;-67
2022/03/22 07:10:03;;;;;;;33.00;17.03;;;;;;;14.67;20.96;102541.25;5362349;32;34376;-64
2022/03/22 07:13:09;;;;;;;32.55;14.52;;;;;;;14.51;21.44;102546.88;5370260;32;34164;-72
2022/03/22 07:16:11;;;;;;;31.98;14.87;;;;;;;14.91;20.79;102538.03;5361919;32;34110;-72
2022/03/22 07:19:15;;;;;;;23.35;14.38;;;;;;;15.43;20.64;102534.13;5364198;32;34171;-75
2022/03/22 07:22:17;;;;;;;28.15;14.52;;;;;;;15.48;20.51;102537.53;5350089;32;34978;-69
2022/03/22 07:25:22;;;;;;;29.65;14.18;;;;;;;14.92;20.47;102542.44;5354681;32;35271;-69
2022/03/22 07:28:26;;;;;;;25.65;14.30;;;;;;;18.14;17.13;102532.00;5372862;32;36167;-71
2022/03/22 07:31:29;;;;;;;27.40;13.30;;;;;;;16.97;18.30;102537.75;5362124;32;44299;-69
2022/03/22 07:34:31;;;;;;;24.50;13.93;;;;;;;16.32;17.92;102547.69;5377519;32;34103;-71
2022/03/22 07:37:34;;;;;;;27.05;13.70;;;;;;;18.63;16.14;102538.13;5357705;32;34148;-70
2022/03/22 07:40:37;;;;;;;22.83;12.77;;;;;;;15.79;18.07;102544.75;5370716;32;34274;-71
2022/03/22 07:43:41;;;;;;;21.35;12.98;;;;;;;17.40;16.82;102533.69;5340260;32;33609;-69
2022/03/22 07:46:44;;;;;;;22.75;14.27;;;;;;;18.97;15.34;102536.84;5350648;32;34295;-70
2022/03/22 07:53:08;;;;;;;24.10;13.93;;;;;;;17.40;16.25;102547.00;5355804;32;34231;-67
2022/03/22 07:56:13;;;;;;;;;;;;;;;15.91;17.63;102544.41;5378123;32;34138;-70
2022/03/22 07:59:15;;;;;;;26.25;13.45;;;;;;;16.77;17.00;102545.47;5364575;32;35296;-75
2022/03/22 08:02:18;;;;;;;;;;;;;;;17.73;16.16;102537.03;5347103;32;33957;-75
2022/03/22 08:05:22;;;;;;;23.42;13.68;;;;;;;18.86;14.98;102530.12;5365925;32;34413;-72
2022/03/22 08:08:25;;;;;;;20.35;13.40;;;;;;;18.81;14.81;102529.47;5342172;32;34034;-71
2022/03/22 08:11:35;;;;;;;23.50;14.43;;;;;;;18.62;15.08;102533.75;5352793;32;44921;-69
2022/03/22 08:14:45;;;;;;;30.23;14.40;;;;;;;19.05;14.75;102527.59;5339018;32;34881;-70
2022/03/22 08:17:48;;;;;;;26.15;14.45;;;;;;;16.39;16.98;102530.66;5359323;32;34218;-74
2022/03/22 08:20:54;;;;;;;;;;;;;;;15.97;17.54;102537.16;5361266;32;34517;-73
2022/03/22 08:24:01;;;;;;;23.70;14.63;;;;;;;14.84;19.32;102539.09;5351412;32;44580;-76
2022/03/22 08:27:07;;;;;;;21.67;14.20;;;;;;;13.84;19.78;102537.59;5360245;32;34235;-88
2022/03/22 08:30:10;;;;;;;30.50;15.13;;;;;;;15.14;18.39;102522.50;5340103;32;36584;-82
2022/03/22 08:33:13;;;;;;;26.02;15.02;;;;;;;14.84;18.77;102524.09;5364849;32;33814;-77
2022/03/22 08:36:15;;;;;;;31.17;15.65;;;;;;;14.81;18.42;102523.25;5372560;32;34253;-67
2022/03/22 08:39:19;;;;;;;22.58;13.57;;;;;;;14.58;18.80;102524.66;5372967;32;34221;-71
2022/03/22 08:42:22;;;;;;;26.07;14.13;;;;;;;14.21;18.83;102527.16;5348004;32;37591;-68
2022/03/22 08:45:27;;;;;;;25.57;14.60;;;;;;;14.38;18.42;102520.69;5348895;32;34915;-64
2022/03/22 08:48:29;;;;;;;27.10;14.77;;;;;;;14.19;18.86;102518.41;5371766;32;44696;-65
2022/03/22 08:51:32;;;;;;;26.17;14.13;;;;;;;14.41;18.54;102513.53;5351460;32;34468;-65
2022/03/22 08:54:35;;;;;;;24.33;14.63;;;;;;;14.85;17.78;102507.28;5377457;32;34134;-66
2022/03/22 08:57:39;;;;;;;29.42;14.87;;;;;;;15.39;17.75;102500.66;5364706;32;34186;-66
2022/03/22 09:00:41;;;;;;;24.40;14.90;;;;;;;15.41;17.65;102505.03;5373495;32;34193;-64
2022/03/22 09:06:07;;;;;;;26.75;15.52;;;;;;;16.81;16.41;102495.78;5357357;32;34142;-64
2022/03/22 09:07:06;;;;;;;30.23;17.40;;;;;;;18.22;15.14;102495.31;5369426;32;44479;-61
2022/03/22 09:10:09;;;;;;;26.10;14.30;;;;;;;17.85;15.49;102494.03;5372395;32;34782;-61
2022/03/22 09:13:15;;;;;;;25.13;15.50;;;;;;;18.63;14.83;102490.19;5354258;32;34108;-63
2022/03/22 09:16:19;;;;;;;27.87;15.02;;;;;;;15.47;17.65;102498.72;5361622;32;33898;-65
2022/03/22 09:19:22;;;;;;;23.85;14.63;;;;;;;16.63;16.87;102490.13;5363246;32;34124;-63
2022/03/22 09:22:24;;;;;;;22.37;14.85;;;;;;;18.62;15.28;102477.81;5364870;32;36586;-65
2022/03/22 09:25:30;;;;;;;26.10;16.27;;;;;;;21.38;12.85;102469.72;5380994;32;35446;-76
2022/03/22 09:28:32;;;;;;;23.35;14.05;;;;;;;20.30;13.81;102470.56;5354758;32;44379;-87
2022/03/22 09:31:40;;;;;;;25.40;15.55;;;;;;;22.85;11.56;102459.88;5381124;32;34133;-77
2022/03/22 09:34:43;;;;;;;23.60;15.70;;;;;;;24.15;10.75;102454.72;5367639;32;34276;-77
2022/03/22 09:37:48;;;;;;;25.05;15.25;;;;;;;22.93;11.43;102456.81;5366669;32;35904;-80
2022/03/22 09:40:52;;;;;;;19.62;14.13;;;;;;;22.31;11.91;102458.53;5361937;32;35399;-74
2022/03/22 09:43:56;;;;;;;23.15;14.73;;;;;;;21.99;11.77;102462.97;5336964;32;32017;-74
2022/03/22 09:46:58;;;;;;;21.77;14.52;;;;;;;22.83;11.46;102456.44;5362618;32;44517;-71
2022/03/22 09:50:01;;;;;;;19.95;14.50;;;;;;;26.18;9.30;102442.69;5354432;32;33804;-74
2022/03/22 09:53:03;;;;;;;;;;;;;;;22.93;10.96;102448.75;5362564;32;34081;-82
2022/03/22 09:56:07;;;;;;;23.25;15.02;;;;;;;22.78;10.76;102450.47;5371182;32;33139;-79
2022/03/22 09:59:11;;;;;;;23.92;13.88;;;;;;;23.44;10.77;102441.22;5350878;32;36056;-76
2022/03/22 10:02:27;;;;;;;21.05;14.32;;;;;;;26.04;9.17;102441.00;5374564;32;34286;-79
2022/03/22 10:05:30;;;;;;;21.85;13.52;;;;;;;24.47;9.97;102428.47;5365342;32;47176;-78
2022/03/22 10:08:34;;;;;;;21.80;14.27;;;;;;;25.81;9.28;102433.69;5344679;32;34177;-78
2022/03/22 10:11:43;;;;;;;21.67;14.05;;;;;;;24.16;10.05;102431.38;5362113;32;34184;-81
2022/03/22 10:14:45;;;;;;;28.75;14.48;;;;;;;26.30;8.88;102412.16;5370962;32;33696;-74
2022/03/22 10:17:49;;;;;;;19.92;14.55;;;;;;;24.96;9.68;102421.62;5357676;32;36198;-74
2022/03/22 10:21:00;;;;;;;24.35;14.82;;;;;;;26.57;8.92;102408.41;5362251;32;34301;-80
2022/03/22 10:24:05;;;;;;;20.23;12.65;;;;;;;25.41;9.21;102422.16;5375447;32;44550;-80
2022/03/22 10:27:26;;;;;;;20.85;13.10;;;;;;;23.38;10.19;102417.44;5355833;32;34077;-73
2022/03/22 10:30:55;;;;;;;25.58;12.98;;;;;;;23.57;10.10;102411.78;5373544;32;34516;-81
2022/03/22 10:33:59;;;;;;;18.65;12.27;;;;;;;27.19;8.06;102402.78;5380893;32;44202;-73
2022/03/22 10:37:01;;;;;;;17.95;11.95;;;;;;;26.01;8.43;102406.19;5368673;32;34907;-81
2022/03/22 10:40:04;;;;;;;21.67;13.25;;;;;;;26.10;8.69;102391.19;5377705;32;33845;-70
2022/03/22 10:43:07;;;;;;;20.73;13.23;;;;;;;26.98;8.41;102389.06;5347184;32;34188;-77
2022/03/22 10:46:11;;;;;;;27.87;13.32;;;;;;;29.16;7.01;102388.44;5369964;32;34704;-79
2022/03/22 10:49:18;;;;;;;19.50;12.30;;;;;;;27.15;8.07;102385.09;5368644;32;34161;-73
2022/03/22 10:52:51;;;;;;;17.27;11.20;;;;;;;27.73;7.56;102381.38;5354330;32;33504;-81
2022/03/22 10:55:55;;;;;;;17.50;11.60;;;;;;;26.13;8.15;102378.34;5355629;32;166826;-75
2022/03/22 10:58:58;;;;;;;20.23;11.68;;;;;;;24.27;9.25;102377.81;5367378;32;44509;-76
2022/03/22 11:02:01;;;;;;;19.27;12.10;;;;;;;25.20;8.58;102371.56;5364044;32;34039;-72
2022/03/22 11:05:06;;;;;;;17.85;11.85;;;;;;;24.14;9.34;102375.06;5365957;32;34273;-75
2022/03/22 11:08:10;;;;;;;20.17;11.65;;;;;;;26.30;8.38;102360.06;5359396;32;34169;-72
2022/03/22 11:11:13;;;;;;;22.00;11.70;;;;;;;27.34;7.67;102352.97;5376590;32;34036;-71
2022/03/22 11:14:17;;;;;;;19.52;12.73;;;;;;;25.61;8.67;102354.31;5352713;32;35171;-76
2022/03/22 11:17:21;;;;;;;20.00;12.48;;;;;;;23.87;9.84;102348.16;5374175;32;33386;-77
2022/03/22 11:20:27;;;;;;;17.30;10.23;;;;;;;20.82;11.85;102359.37;5367777;32;32077;-75
2022/03/22 11:23:31;;;;;;;17.83;10.15;;;;;;;23.07;10.06;102346.91;5369208;32;45586;-73
2022/03/22 11:26:44;;;;;;;16.62;10.68;;;;;;;22.27;10.51;102344.47;5356013;32;34842;-72
2022/03/22 11:29:46;;;;;;;16.42;10.82;;;;;;;22.69;9.97;102338.44;5364988;32;34040;-67
2022/03/22 11:36:13;;;;;;;21.80;11.30;;;;;;;24.42;9.20;102332.97;5365321;32;35816;-70
2022/03/22 11:39:17;;;;;;;17.33;10.20;;;;;;;21.31;11.33;102345.28;5364297;32;33962;-73
2022/03/22 11:42:25;;;;;;;17.92;10.20;;;;;;;22.46;10.60;102329.06;5364436;32;34389;-70
2022/03/22 11:45:27;;;;;;;16.90;9.10;;;;;;;22.76;10.14;102320.16;5349348;32;43177;-79
2022/03/22 11:48:33;;;;;;;20.02;10.00;;;;;;;25.34;8.72;102317.63;5363232;32;35248;-76
2022/03/22 11:51:46;;;;;;;18.12;10.20;;;;;;;23.77;9.72;102313.00;5363983;32;34309;-70
2022/03/22 11:54:56;;;;;;;17.23;9.90;;;;;;;23.38;10.05;102311.00;5376063;32;35427;-68
2022/03/22 11:58:10;;;;;;;22.30;10.05;;;;;;;23.74;10.00;102307.81;5361242;32;46146;-73
2022/03/22 12:01:15;;;;;;;18.08;9.73;;;;;;;26.51;8.44;102290.22;5359727;32;33989;-69
2022/03/22 12:04:18;;;;;;;24.20;10.65;;;;;;;22.01;10.67;102298.59;5357742;32;34222;-73
2022/03/22 12:07:28;;;;;;;;;;;;;;;24.78;9.53;102287.44;5344151;32;33540;-75
2022/03/22 12:10:31;;;;;;;17.65;10.05;;;;;;;24.28;9.64;102280.09;5375560;32;44629;-71
2022/03/22 12:13:43;;;;;;;18.17;9.75;;;;;;;24.65;9.41;102283.03;5359564;32;34342;-76
2022/03/22 12:16:51;;;;;;;18.40;9.87;;;;;;;23.62;9.89;102271.00;5365110;32;34140;-73
2022/03/22 12:19:57;;;;;;;16.27;10.13;;;;;;;26.77;8.29;102262.09;5359945;32;34005;-73
2022/03/22 12:23:03;;;;;;;18.90;10.13;;;;;;;27.49;8.04;102248.28;5351413;32;45068;-72
2022/03/22 12:26:05;;;;;;;18.00;10.35;;;;;;;28.16;7.52;102248.13;5362202;32;34987;-74
2022/03/22 12:29:08;;;;;;;17.48;9.85;;;;;;;24.71;9.49;102251.19;5359517;32;35364;-69
2022/03/22 12:32:17;;;;;;;;;;;;;;;24.18;9.94;102246.78;5376356;32;35416;-70
2022/03/22 12:35:20;;;;;;;16.98;9.95;;;;;;;22.98;10.76;102240.19;5363978;32;34997;-71
2022/03/22 12:38:23;;;;;;;16.87;9.48;;;;;;;24.17;10.00;102228.94;5356915;32;34069;-72
2022/03/22 12:41:25;;;;;;;13.98;8.60;;;;;;;24.03;10.26;102225.34;5377672;32;36866;-81
2022/03/22 12:44:28;;;;;;;16.52;9.25;;;;;;;28.02;8.15;102216.00;5330033;32;46517;-72
2022/03/22 12:47:31;;;;;;;15.70;8.73;;;;;;;26.23;9.13;102208.75;5361670;32;35457;-68
2022/03/22 12:50:33;;;;;;;13.10;8.77;;;;;;;25.75;8.99;102208.78;5347601;32;32920;-71
2022/03/22 12:53:35;;;;;;;;;;;;;;;27.74;7.97;102202.09;5374348;32;35876;-71
2022/03/22 12:56:44;;;;;;;16.45;9.05;;;;;;;29.74;7.00;102191.78;5366537;32;34310;-74
2022/03/22 12:59:59;;;;;;;18.60;8.90;;;;;;;29.17;7.23;102184.38;5345826;32;45817;-84
2022/03/22 13:12:17;;;;;;;14.27;8.77;;;;;;;25.73;9.08;102178.41;5181853;33;36298;-77
2022/03/22 13:19:41;;;;;;;13.95;8.52;;;;;;;27.24;8.30;102168.41;5257744;33;34110;-74
2022/03/22 13:27:17;;;;;;;14.23;8.55;;;;;;;30.94;6.70;102141.50;5440934;32;179865;-77
2022/03/22 13:30:20;;;;;;;14.87;8.30;;;;;;;27.61;8.17;102154.59;5444345;32;33875;-80
2022/03/22 13:33:31;;;;;;;13.07;7.25;;;;;;;32.06;6.10;102141.13;5430112;32;33976;-66
2022/03/22 13:36:34;;;;;;;13.97;8.20;;;;;;;34.85;4.60;102137.00;5430077;32;44704;-69
2022/03/22 13:39:44;;;;;;;13.85;8.77;;;;;;;28.53;7.02;102155.75;5448459;32;34056;-72
2022/03/22 13:43:00;;;;;;;13.85;7.93;;;;;;;25.48;9.47;102144.34;5425349;32;34147;-73
2022/03/22 13:46:02;;;;;;;13.48;7.87;;;;;;;22.30;11.47;102146.09;5436654;32;44485;-77
2022/03/22 13:49:07;;;;;;;14.77;7.60;;;;;;;21.53;12.16;102155.06;5435857;32;35204;-77
2022/03/22 13:52:10;;;;;;;15.60;6.80;;;;;;;21.30;12.13;102148.34;5440610;32;34814;-69
2022/03/22 13:55:13;;;;;;;17.67;7.78;;;;;;;20.49;12.72;102150.09;5439597;32;34128;-70
2022/03/22 13:58:21;;;;;;;13.25;7.30;;;;;;;21.36;12.26;102142.66;5425077;32;33787;-71
2022/03/22 14:01:24;;;;;;;14.23;6.95;;;;;;;20.39;12.91;102143.47;5446677;32;36772;-72
2022/03/22 14:04:27;;;;;;;12.63;6.97;;;;;;;20.69;12.81;102128.50;5443849;32;43134;-70
2022/03/22 14:07:30;;;;;;;12.93;7.45;;;;;;;19.75;13.31;102135.13;5447531;32;44466;-65
2022/03/22 14:10:32;;;;;;;15.65;7.18;;;;;;;19.11;13.84;102119.56;5416705;32;35974;-79
2022/03/22 14:13:35;;;;;;;20.08;7.05;;;;;;;20.16;13.22;102126.00;5435359;32;33543;-75
2022/03/22 14:16:37;;;;;;;13.60;6.45;;;;;;;19.29;13.45;102123.16;5440941;32;34821;-68
2022/03/22 14:19:39;;;;;;;14.52;6.20;;;;;;;19.71;13.21;102124.72;5436505;32;34024;-71
2022/03/22 14:22:41;;;;;;;12.30;5.37;;;;;;;20.09;12.97;102109.41;5436634;32;33916;-76
2022/03/22 14:25:46;;;;;;;14.80;6.45;;;;;;;20.28;12.84;102093.28;5428834;32;32924;-72
2022/03/22 14:28:50;;;;;;;15.00;6.45;;;;;;;20.06;13.09;102103.38;5455564;32;35110;-74
2022/03/22 14:31:53;;;;;;;12.95;6.22;;;;;;;19.33;13.39;102087.44;5437489;32;33945;-66
2022/03/22 14:38:19;;;;;;;;;;;;;;;19.60;13.64;102081.69;5428513;32;33984;-66
2022/03/22 14:41:24;;;;;;;15.70;6.37;;;;;;;20.29;13.20;102071.00;5422751;32;36480;-74
2022/03/22 14:44:30;;;;;;;14.18;7.18;;;;;;;21.14;12.47;102067.25;5414300;32;44226;-72
2022/03/22 14:47:34;;;;;;;11.18;5.60;;;;;;;20.74;12.50;102061.47;5413899;32;35904;-68
2022/03/22 14:50:36;;;;;;;14.25;6.32;;;;;;;21.13;11.90;102062.88;5424399;32;35459;-68
2022/03/22 15:00:23;;;;;;;13.45;5.18;;;;;;;20.06;12.35;102055.31;5424122;32;36232;-75
2022/03/22 15:03:28;;;;;;;;;;;;;;;19.74;12.73;102050.72;5402887;32;34227;-72